Time;durP1;ratioP1;P1;durP2;ratioP2;P2;SDS_P1;SDS_P2;PMS_P1;PMS_P2;Temp;Humidity;BMP_temperature;BMP_pressure;BME280_temperature;BME280_humidity;BME280_pressure;Samples;Min_cycle;Max_cycle;Signal;HPM_P1;HPM_P2
2021/06/02 00:00:13;;;;;;;5.20;3.17;;;13.30;57.60;;;12.73;41.13;95047.44;5067526;28;20215;-81
2021/06/02 00:02:55;;;;;;;5.88;4.15;;;13.20;57.50;;;12.63;41.73;95039.94;5044436;28;20207;-81
2021/06/02 00:05:23;;;;;;;4.15;3.60;;;13.20;57.90;;;12.64;41.63;95046.00;4988404;28;20238;-81
2021/06/02 00:07:52;;;;;;;3.60;3.30;;;13.10;57.50;;;12.61;41.64;95044.56;4888353;29;20672;-81
2021/06/02 00:10:20;;;;;;;3.83;3.30;;;13.10;57.40;;;12.52;41.59;95031.81;4924393;28;20217;-81
2021/06/02 00:15:32;;;;;;;3.45;3.15;;;13.00;57.30;;;12.47;41.66;95042.94;5149933;27;20646;-81
2021/06/02 00:18:00;;;;;;;3.60;3.30;;;12.90;57.50;;;12.42;41.80;95043.53;5102436;28;20216;-80
2021/06/02 00:20:28;;;;;;;6.28;3.13;;;12.90;57.70;;;12.34;42.03;95033.22;5068716;28;20218;-81
2021/06/02 00:22:55;;;;;;;4.50;3.45;;;12.90;57.90;;;12.26;42.12;95036.03;5028810;28;20234;-81
2021/06/02 00:25:21;;;;;;;3.78;3.22;;;12.80;57.80;;;12.23;42.06;95037.25;4991233;28;20210;-81
2021/06/02 00:27:48;;;;;;;3.65;3.30;;;12.80;58.00;;;12.18;42.49;95042.25;4949381;28;20211;-81
2021/06/02 00:30:18;;;;;;;3.63;3.20;;;12.70;58.40;;;12.09;42.95;95041.63;4871135;29;20244;-81
2021/06/02 00:32:45;;;;;;;3.75;3.30;;;12.60;59.10;;;11.99;42.72;95039.38;4720272;29;20229;-80
2021/06/02 00:37:13;;;;;;;4.75;3.17;;;12.60;58.50;;;11.92;42.44;95037.72;5150456;27;20635;-81
2021/06/02 00:39:45;;;;;;;4.38;3.25;;;12.50;58.20;;;11.89;42.84;95031.03;5107358;28;20315;-81
2021/06/02 00:42:12;;;;;;;6.07;3.05;;;12.50;58.40;;;11.84;42.63;95029.00;5053578;28;20263;-80
2021/06/02 00:44:39;;;;;;;3.83;3.40;;;12.40;58.60;;;11.80;42.63;95029.59;5074809;28;20259;-80
2021/06/02 00:47:06;;;;;;;3.80;3.22;;;12.40;58.80;;;11.74;42.72;95030.38;5034584;28;20209;-81
2021/06/02 00:49:33;;;;;;;5.28;3.70;;;12.40;58.80;;;11.71;42.97;95028.16;4984321;28;20232;-81
2021/06/02 00:52:07;;;;;;;5.38;3.28;;;12.30;58.70;;;11.66;42.93;95032.16;4920980;28;20210;-81
2021/06/02 00:54:37;;;;;;;4.15;3.50;;;12.20;59.90;;;11.59;43.11;95018.19;4701382;29;20245;-80
2021/06/02 00:58:47;;;;;;;3.53;3.17;;;12.20;59.30;;;11.57;43.34;95024.63;5134744;27;20581;-81
2021/06/02 01:01:16;;;;;;;5.72;4.00;;;12.10;60.00;;;11.52;43.47;95026.03;5065316;28;20203;-80
2021/06/02 01:03:43;;;;;;;4.65;4.25;;;12.10;59.40;;;11.51;43.79;95027.03;5029283;28;20705;-79
2021/06/02 01:06:11;;;;;;;5.28;4.15;;;12.00;59.60;;;11.52;44.05;95019.97;5065501;28;20223;-80
2021/06/02 01:08:43;;;;;;;5.90;4.07;;;12.00;59.80;;;11.48;43.86;95016.09;5025435;28;20689;-79
2021/06/02 01:11:10;;;;;;;6.15;3.97;;;12.00;60.30;;;11.50;43.68;95022.78;4944316;28;20815;-80
2021/06/02 01:13:42;;;;;;;4.50;3.78;;;12.00;60.00;;;11.49;43.59;95017.72;4906266;28;20228;-81
2021/06/02 01:16:10;;;;;;;4.07;3.58;;;12.00;60.60;;;11.47;43.75;95025.78;4748002;29;20311;-80
2021/06/02 01:20:09;;;;;;;6.18;3.65;;;11.90;60.00;;;11.34;43.75;95021.28;5150031;27;20636;-81
2021/06/02 01:22:37;;;;;;;5.07;3.75;;;11.90;59.90;;;11.34;43.83;95029.16;5105911;28;20918;-79
2021/06/02 01:25:11;;;;;;;5.20;3.95;;;11.90;60.10;;;11.34;44.19;95026.53;5098246;28;20275;-80
2021/06/02 01:27:39;;;;;;;6.00;3.58;;;11.80;60.30;;;11.33;43.94;95026.75;5013654;28;20204;-81
2021/06/02 01:30:12;;;;;;;4.10;3.63;;;11.80;60.20;;;11.30;44.21;95030.56;4984569;28;20205;-80
2021/06/02 01:32:52;;;;;;;4.18;3.65;;;11.80;60.80;;;11.26;44.44;95036.41;4908159;29;20205;-80
2021/06/02 01:35:42;;;;;;;4.32;3.92;;;11.80;61.00;;;11.23;44.41;95042.03;4772932;29;20223;-80
2021/06/02 01:39:22;;;;;;;6.05;3.70;;;11.70;60.90;;;11.17;44.56;95035.75;5141459;27;20981;-81
2021/06/02 01:42:49;;;;;;;4.28;3.40;;;11.80;60.90;;;11.14;44.59;95038.75;5015921;28;20210;-79
2021/06/02 01:45:26;;;;;;;4.38;3.47;;;11.70;61.00;;;11.10;44.57;95040.94;4967841;28;20211;-80
2021/06/02 01:48:35;;;;;;;4.18;3.60;;;11.60;60.30;;;11.01;44.85;95037.66;4898595;29;20228;-80
2021/06/02 01:51:48;;;;;;;6.13;3.50;;;11.60;61.00;;;11.00;44.99;95041.28;4857859;29;20250;-79
2021/06/02 01:54:57;;;;;;;5.05;3.83;;;11.60;60.90;;;10.98;44.49;95034.59;4657006;30;20253;-79
2021/06/02 02:00:48;;;;;;;4.03;3.63;;;11.50;61.10;;;10.99;44.84;95038.84;5129832;27;20380;-80
2021/06/02 02:03:54;;;;;;;3.47;3.13;;;11.50;61.30;;;10.97;44.91;95040.84;5058396;28;20223;-79
2021/06/02 02:07:06;;;;;;;3.90;3.53;;;11.50;61.30;;;10.94;44.81;95034.16;5052249;28;20206;-80
2021/06/02 02:10:26;;;;;;;3.70;3.25;;;11.50;61.20;;;10.92;44.75;95036.16;5019997;28;20242;-80
2021/06/02 02:13:11;;;;;;;4.28;3.70;;;11.40;61.40;;;10.89;45.02;95042.59;4893089;28;20609;-81
2021/06/02 02:16:10;;;;;;;4.57;3.83;;;11.40;61.50;;;10.88;45.08;95029.69;4708134;29;20546;-80
2021/06/02 02:19:38;;;;;;;4.82;3.40;;;11.40;61.80;;;10.88;44.88;95032.31;5138542;27;20577;-79
2021/06/02 02:22:53;;;;;;;4.28;3.88;;;11.40;61.60;;;10.83;45.15;95032.88;5069722;28;20198;-80
2021/06/02 02:25:44;;;;;;;3.95;3.33;;;11.40;61.40;;;10.80;45.08;95030.63;5046667;28;20226;-79
2021/06/02 02:28:23;;;;;;;5.20;3.72;;;11.30;61.50;;;10.75;45.12;95035.63;5012916;28;20229;-80
2021/06/02 02:31:08;;;;;;;4.20;3.80;;;11.40;61.90;;;10.71;45.12;95040.44;4885780;28;20227;-80
2021/06/02 02:33:57;;;;;;;4.10;3.50;;;11.30;61.80;;;10.63;45.57;95037.13;4702704;30;20237;-80
2021/06/02 02:36:50;;;;;;;4.70;3.38;;;11.30;61.80;;;10.52;45.37;95033.22;4529882;31;20241;-80
2021/06/02 02:40:00;;;;;;;4.30;3.35;;;11.20;61.80;;;10.44;45.46;95033.34;5132706;27;20400;-80
2021/06/02 02:42:43;;;;;;;4.15;3.75;;;11.10;61.90;;;10.36;45.58;95031.63;5064802;28;20610;-81
2021/06/02 02:45:24;;;;;;;3.83;3.42;;;11.10;62.00;;;10.33;45.55;95045.13;5062869;28;20211;-80
2021/06/02 02:48:11;;;;;;;6.50;3.97;;;11.00;62.20;;;10.25;45.88;95036.38;5027629;28;20278;-80
2021/06/02 02:51:00;;;;;;;4.15;3.70;;;10.90;62.10;;;10.23;46.19;95037.56;5017004;28;20212;-80
2021/06/02 02:54:18;;;;;;;4.68;4.13;;;10.90;62.50;;;10.14;45.98;95039.47;4793901;29;20713;-80
2021/06/02 03:00:01;;;;;;;4.75;4.22;;;10.80;61.60;;;10.05;46.28;95032.75;5129864;27;20648;-80
2021/06/02 03:02:48;;;;;;;4.32;3.70;;;10.70;62.40;;;10.05;46.40;95041.41;5075296;28;20566;-81
2021/06/02 03:05:31;;;;;;;5.00;4.00;;;10.60;63.70;;;10.00;46.71;95041.16;5049726;28;20217;-80
2021/06/02 03:08:22;;;;;;;4.45;3.83;;;10.60;62.70;;;10.01;46.51;95041.94;5021539;28;20282;-80
2021/06/02 03:11:05;;;;;;;4.90;4.20;;;10.60;62.50;;;9.99;46.99;95046.59;4973213;28;20212;-80
2021/06/02 03:13:44;;;;;;;4.93;4.32;;;10.50;63.10;;;9.95;46.65;95043.50;4854306;29;20235;-80
2021/06/02 03:16:20;;;;;;;6.10;4.50;;;10.50;62.50;;;9.97;47.07;95043.31;4724903;29;20237;-80
2021/06/02 03:19:58;;;;;;;7.22;4.53;;;10.50;63.00;;;10.01;46.92;95052.44;5125240;27;20589;-80
2021/06/02 03:23:13;;;;;;;4.78;4.28;;;10.50;63.50;;;10.01;46.83;95049.81;5013025;28;20210;-80
2021/06/02 03:26:11;;;;;;;5.25;4.30;;;10.50;63.40;;;10.02;47.05;95054.06;5047710;28;20204;-80
2021/06/02 03:29:13;;;;;;;4.93;4.20;;;10.50;63.40;;;10.04;47.06;95058.13;5009600;28;20240;-80
2021/06/02 03:32:26;;;;;;;6.32;4.22;;;10.50;63.10;;;10.05;46.87;95056.31;4855230;29;20215;-80
2021/06/02 03:35:12;;;;;;;5.93;4.15;;;10.50;63.50;;;10.06;46.86;95060.56;4573655;29;20248;-78
2021/06/02 03:38:19;;;;;;;4.70;4.03;;;10.50;63.60;;;10.09;47.00;95052.31;5142711;27;20959;-80
2021/06/02 03:41:22;;;;;;;4.68;3.97;;;10.50;63.90;;;10.10;47.31;95056.56;5074648;27;20455;-80
2021/06/02 03:44:01;;;;;;;6.45;4.38;;;10.50;63.70;;;10.13;47.15;95048.34;5082958;28;20283;-81
2021/06/02 03:47:11;;;;;;;4.40;4.00;;;10.60;63.30;;;10.18;47.36;95063.50;5045702;28;20271;-80
2021/06/02 03:50:09;;;;;;;6.70;4.07;;;10.60;63.90;;;10.21;47.37;95057.91;4919713;28;20245;-80
2021/06/02 03:53:01;;;;;;;4.47;3.90;;;10.60;64.00;;;10.26;47.18;95055.53;4782012;29;20209;-80
2021/06/02 03:56:19;;;;;;;5.32;4.18;;;10.60;63.90;;;10.34;47.56;95057.22;5129567;27;20563;-80
2021/06/02 03:59:01;;;;;;;5.03;4.35;;;10.70;64.40;;;10.38;47.73;95056.69;5073237;28;20286;-80
2021/06/02 04:01:44;;;;;;;7.72;4.40;;;10.70;63.40;;;10.45;47.45;95059.38;5035913;28;20199;-81
2021/06/02 04:05:08;;;;;;;4.72;4.22;;;10.80;64.70;;;10.53;47.65;95068.94;5044049;28;20282;-80
2021/06/02 04:08:16;;;;;;;6.00;4.50;;;10.80;64.20;;;10.54;47.55;95062.69;4865185;29;20209;-81
2021/06/02 04:11:19;;;;;;;5.82;4.78;;;10.80;63.50;;;10.63;47.73;95071.25;4819436;29;20202;-81
2021/06/02 04:16:22;;;;;;;5.85;4.38;;;11.00;64.60;;;10.72;47.77;95075.38;5137352;27;20912;-81
2021/06/02 04:18:51;;;;;;;6.30;4.57;;;11.00;64.20;;;10.78;47.98;95068.53;5101799;28;20224;-82
2021/06/02 04:21:23;;;;;;;6.05;4.38;;;11.10;64.10;;;10.86;48.23;95081.53;5070684;28;20210;-80
2021/06/02 04:23:52;;;;;;;4.97;4.47;;;11.10;64.60;;;10.91;48.18;95073.09;5053992;28;20222;-82
2021/06/02 04:26:20;;;;;;;7.82;5.00;;;11.10;64.30;;;10.96;47.89;95076.78;4971099;28;20219;-81
2021/06/02 04:28:49;;;;;;;6.40;4.95;;;11.20;64.50;;;11.08;48.18;95079.69;4911031;28;20236;-82
2021/06/02 04:31:16;;;;;;;6.88;4.63;;;11.30;64.80;;;11.12;48.17;95073.06;4802075;29;20722;-81
2021/06/02 04:33:44;;;;;;;6.20;5.18;;;11.30;64.50;;;11.20;48.10;95070.31;4672367;30;20237;-82
2021/06/02 04:36:17;;;;;;;6.03;4.78;;;11.30;64.70;;;11.34;48.19;95079.06;5145201;27;20339;-82
2021/06/02 04:38:43;;;;;;;5.45;4.70;;;11.40;64.70;;;11.44;48.50;95075.28;5073856;28;20262;-82
2021/06/02 04:41:10;;;;;;;6.63;4.72;;;11.50;65.70;;;11.57;48.32;95085.06;5064536;28;20210;-81
2021/06/02 04:43:39;;;;;;;4.95;4.35;;;11.60;65.00;;;11.65;48.59;95083.06;5059556;28;20756;-82
2021/06/02 04:46:09;;;;;;;5.47;4.80;;;11.70;65.30;;;11.72;48.35;95066.53;5038478;28;20206;-82
2021/06/02 04:48:36;;;;;;;6.25;4.47;;;11.70;66.20;;;11.81;48.51;95081.13;5001718;28;20234;-83
2021/06/02 04:52:01;;;;;;;6.43;4.85;;;11.80;65.00;;;11.88;48.65;95087.25;4956683;28;20213;-82
2021/06/02 04:56:49;;;;;;;5.70;4.65;;;11.90;65.40;;;11.93;48.26;95081.41;5149417;27;20558;-82
2021/06/02 04:59:33;;;;;;;5.07;4.38;;;12.20;65.10;;;11.95;48.22;95082.00;5086504;28;20693;-82
2021/06/02 05:02:51;;;;;;;6.80;5.10;;;12.20;64.60;;;12.00;48.32;95085.69;5017448;28;20209;-81
2021/06/02 05:06:03;;;;;;;5.82;4.60;;;12.20;65.30;;;12.05;48.29;95084.28;4971448;28;20211;-81
2021/06/02 05:09:01;;;;;;;5.57;4.90;;;12.20;65.30;;;12.13;48.50;95092.00;4900487;29;20766;-81
2021/06/02 05:11:52;;;;;;;5.35;4.35;;;12.30;65.50;;;12.22;48.65;95096.09;4809863;29;20220;-81
2021/06/02 05:15:04;;;;;;;5.70;5.00;;;12.30;65.50;;;12.36;48.77;95101.41;5132472;27;20659;-82
2021/06/02 05:18:08;;;;;;;5.35;4.32;;;12.40;65.70;;;12.43;48.76;95097.78;5063935;28;20202;-82
2021/06/02 05:24:24;;;;;;;5.18;4.68;;;12.60;65.50;;;12.71;48.66;95103.91;5075586;28;20254;-84
2021/06/02 05:27:34;;;;;;;5.80;4.63;;;12.70;65.50;;;12.85;48.49;95104.72;4961855;28;20207;-82
2021/06/02 05:30:38;;;;;;;5.78;4.65;;;12.80;65.50;;;13.00;48.39;95105.34;4825316;29;20218;-82
2021/06/02 05:35:37;;;;;;;6.40;4.88;;;12.90;65.40;;;13.23;48.39;95106.75;5150758;27;20653;-82
2021/06/02 05:38:48;;;;;;;5.20;4.68;;;13.20;65.20;;;13.36;48.44;95100.69;5101375;27;20227;-83
2021/06/02 05:42:04;;;;;;;5.22;4.57;;;13.30;65.50;;;13.51;48.13;95103.13;5062567;28;20211;-81
2021/06/02 05:45:00;;;;;;;5.10;4.60;;;13.40;65.30;;;13.65;48.11;95103.91;4920794;28;20294;-82
2021/06/02 05:48:21;;;;;;;6.38;4.75;;;13.50;65.60;;;13.77;48.12;95108.34;4877813;29;20751;-82
2021/06/02 05:51:22;;;;;;;6.53;4.93;;;13.70;65.40;;;13.97;48.25;95110.09;4729438;29;20254;-83
2021/06/02 05:56:06;;;;;;;5.75;4.43;;;13.80;65.20;;;14.20;47.91;95117.53;5150792;27;20613;-82
2021/06/02 05:58:53;;;;;;;5.50;4.55;;;14.00;65.20;;;14.33;48.03;95110.56;5108190;27;20605;-83
2021/06/02 06:02:01;;;;;;;5.38;4.57;;;14.10;65.10;;;14.46;48.14;95107.88;5056000;28;20669;-83
2021/06/02 06:04:31;;;;;;;5.15;4.45;;;14.30;65.30;;;14.65;47.86;95119.38;5014907;28;20262;-82
2021/06/02 06:07:21;;;;;;;5.28;4.18;;;14.40;65.50;;;14.80;47.98;95119.06;4993154;28;20213;-83
2021/06/02 06:10:26;;;;;;;5.60;4.93;;;14.50;65.40;;;14.98;47.82;95118.34;4957938;28;20227;-83
2021/06/02 06:16:09;;;;;;;6.80;4.50;;;14.70;65.10;;;15.32;47.41;95110.19;5150750;27;20376;-83
2021/06/02 06:19:21;;;;;;;5.40;4.38;;;15.00;65.00;;;15.48;47.40;95109.63;5086788;28;20252;-83
2021/06/02 06:22:28;;;;;;;5.65;4.47;;;15.10;65.00;;;15.64;47.53;95115.38;5104682;28;20200;-82
2021/06/02 06:25:15;;;;;;;5.80;4.47;;;15.30;64.80;;;15.78;47.45;95114.22;5041166;28;20236;-82
2021/06/02 06:28:08;;;;;;;6.38;4.50;;;15.50;65.00;;;15.92;47.34;95117.56;4968140;28;20213;-82
2021/06/02 06:30:37;;;;;;;4.80;4.22;;;15.60;65.00;;;16.02;47.31;95110.94;4827960;29;20596;-82
2021/06/02 06:33:27;;;;;;;5.43;4.47;;;15.70;64.80;;;16.19;47.35;95111.16;5143458;27;20651;-82
2021/06/02 06:35:55;;;;;;;5.00;4.35;;;15.90;65.10;;;16.32;47.24;95113.66;5062598;28;20724;-83
2021/06/02 06:38:45;;;;;;;6.45;4.70;;;16.00;64.80;;;16.48;47.01;95113.03;5036209;28;20314;-83
2021/06/02 06:41:16;;;;;;;6.55;4.90;;;16.10;64.60;;;16.59;46.64;95108.00;5007952;28;20279;-83
2021/06/02 06:43:45;;;;;;;4.72;4.00;;;16.30;64.70;;;16.75;46.80;95114.50;5050110;28;20231;-83
2021/06/02 06:46:15;;;;;;;5.18;4.68;;;16.40;64.80;;;16.84;46.68;95109.69;5038002;28;20236;-82
2021/06/02 06:48:47;;;;;;;6.15;4.72;;;16.50;64.60;;;16.94;46.71;95105.50;4958787;28;20223;-84
2021/06/02 06:53:37;;;;;;;6.70;4.55;;;16.60;64.70;;;17.15;46.25;95106.00;5141661;27;21160;-82
2021/06/02 06:56:06;;;;;;;5.75;4.30;;;16.80;64.20;;;17.24;45.70;95104.63;5068192;28;20203;-82
2021/06/02 06:58:33;;;;;;;4.38;3.95;;;17.00;64.30;;;17.40;45.98;95115.59;5071403;28;20229;-83
2021/06/02 07:01:01;;;;;;;7.40;4.90;;;17.00;65.10;;;17.50;45.47;95115.81;5036209;28;20191;-84
2021/06/02 07:03:48;;;;;;;5.93;4.30;;;17.10;64.00;;;17.65;45.71;95103.94;5071600;28;20226;-84
2021/06/02 07:06:17;;;;;;;5.28;4.07;;;17.30;63.90;;;17.76;45.88;95103.94;4997652;28;20221;-83
2021/06/02 07:08:46;;;;;;;5.45;3.92;;;17.40;64.00;;;17.93;45.21;95117.31;4883954;29;22965;-83
2021/06/02 07:11:14;;;;;;;6.15;4.53;;;17.40;63.50;;;18.09;45.17;95117.66;4693724;30;20220;-82
2021/06/02 07:13:52;;;;;;;5.80;4.32;;;17.60;63.40;;;18.22;44.93;95111.28;5139475;27;20396;-83
2021/06/02 07:16:21;;;;;;;5.55;3.85;;;17.70;63.20;;;18.41;44.14;95114.56;5088496;28;20250;-83
2021/06/02 07:18:51;;;;;;;4.43;3.78;;;17.90;62.70;;;18.52;43.80;95119.03;5071062;28;20226;-83
2021/06/02 07:21:22;;;;;;;4.75;3.72;;;18.00;62.40;;;18.65;43.48;95117.13;5006269;28;20207;-82
2021/06/02 07:23:49;;;;;;;5.20;3.63;;;18.10;61.90;;;18.79;43.13;95121.13;5015754;28;20232;-83
2021/06/02 07:26:16;;;;;;;5.53;3.85;;;18.30;62.20;;;18.93;43.14;95124.34;4960902;28;20327;-82
2021/06/02 07:29:02;;;;;;;3.50;3.20;;;18.40;62.20;;;19.04;42.55;95118.13;4792201;29;20236;-83
2021/06/02 07:31:47;;;;;;;4.28;3.58;;;18.50;62.30;;;19.18;42.39;95113.31;5150732;27;20612;-83
2021/06/02 07:34:14;;;;;;;3.95;3.30;;;18.60;62.10;;;19.29;42.60;95114.28;5106655;28;20227;-84
2021/06/02 07:36:42;;;;;;;3.70;3.30;;;18.80;62.10;;;19.40;42.33;95114.47;5085430;28;20221;-83
2021/06/02 07:39:08;;;;;;;4.28;3.40;;;18.90;62.00;;;19.53;42.39;95114.13;5039352;28;20225;-82
2021/06/02 07:41:35;;;;;;;5.18;3.30;;;19.10;61.70;;;19.63;41.80;95126.78;5041081;28;20209;-84
2021/06/02 07:44:02;;;;;;;3.90;3.60;;;19.10;61.30;;;19.74;41.62;95123.22;4930636;28;20325;-83
2021/06/02 07:46:30;;;;;;;6.13;3.55;;;19.20;60.90;;;19.84;41.38;95119.91;4841924;29;20259;-82
2021/06/02 07:48:57;;;;;;;4.05;3.65;;;19.30;61.10;;;19.96;41.90;95123.28;4702612;29;20256;-83
2021/06/02 07:51:36;;;;;;;3.25;2.85;;;19.40;61.30;;;20.07;41.46;95118.88;5150969;27;20383;-83
2021/06/02 07:54:05;;;;;;;4.05;2.85;;;19.50;61.10;;;20.12;40.60;95124.28;5097973;28;20231;-84
2021/06/02 07:56:33;;;;;;;4.03;3.00;;;19.60;60.10;;;20.22;39.51;95126.25;5082489;28;20219;-84
2021/06/02 07:59:00;;;;;;;4.38;3.05;;;19.70;58.80;;;20.27;39.20;95120.19;5058025;28;20222;-84
2021/06/02 08:01:27;;;;;;;3.63;2.50;;;19.80;58.40;;;20.38;38.59;95113.13;4989402;28;20220;-83
2021/06/02 08:03:54;;;;;;;4.20;2.80;;;19.90;58.30;;;20.44;38.10;95120.94;4930737;28;20695;-85
2021/06/02 08:06:21;;;;;;;4.57;2.80;;;19.90;57.70;;;20.47;37.81;95123.09;4911564;29;20231;-84
2021/06/02 08:11:32;;;;;;;2.80;2.60;;;20.00;57.30;;;20.68;37.13;95127.84;5150708;27;20643;-83
2021/06/02 08:14:00;;;;;;;2.92;2.42;;;20.20;56.90;;;20.77;36.93;95134.38;5100121;28;20217;-84
2021/06/02 08:16:27;;;;;;;2.97;2.67;;;20.30;56.60;;;20.81;37.35;95124.81;5091865;28;20617;-83
2021/06/02 08:18:55;;;;;;;3.90;2.92;;;20.30;56.40;;;20.90;36.72;95127.84;5091511;28;20692;-84
2021/06/02 08:21:21;;;;;;;10.75;2.72;;;20.40;56.00;;;21.02;36.60;95127.69;5055899;28;20690;-83
2021/06/02 08:23:48;;;;;;;4.22;2.80;;;20.50;56.20;;;21.07;36.08;95120.53;4992089;28;20231;-84
2021/06/02 08:26:14;;;;;;;3.65;3.05;;;20.60;55.70;;;21.07;36.51;95120.53;4859463;29;20215;-83
2021/06/02 08:28:41;;;;;;;3.13;2.75;;;20.70;56.20;;;21.17;35.92;95130.50;4850718;29;20247;-84
2021/06/02 08:32:13;;;;;;;2.80;2.60;;;20.70;55.30;;;21.23;35.79;95126.81;5150907;27;20642;-84
2021/06/02 08:34:40;;;;;;;4.90;2.38;;;20.80;55.10;;;21.30;36.30;95126.63;5112419;27;20284;-83
2021/06/02 08:37:07;;;;;;;2.90;2.47;;;20.90;56.70;;;21.37;35.87;95129.88;5102188;28;20273;-84
2021/06/02 08:39:34;;;;;;;12.30;3.10;;;20.90;56.20;;;21.40;35.65;95125.91;5086205;28;20229;-83
2021/06/02 08:42:17;;;;;;;3.05;2.58;;;21.00;56.30;;;21.51;36.09;95121.44;5005903;28;20223;-83
2021/06/02 08:44:44;;;;;;;3.22;2.55;;;21.00;55.20;;;21.54;36.63;95124.38;4950166;28;20237;-83
2021/06/02 08:47:10;;;;;;;3.03;2.60;;;21.10;55.60;;;21.63;35.85;95124.75;4901549;29;20564;-83
2021/06/02 08:52:15;;;;;;;3.05;2.75;;;21.20;54.90;;;21.80;35.59;95121.13;5150695;27;21130;-84
2021/06/02 08:54:42;;;;;;;3.42;2.55;;;21.30;54.80;;;21.89;35.22;95124.91;5093798;28;20228;-84
2021/06/02 08:57:11;;;;;;;3.30;2.90;;;21.30;54.60;;;21.93;35.53;95120.66;5068616;28;20223;-84
2021/06/02 08:59:38;;;;;;;2.78;2.58;;;21.40;54.80;;;21.98;35.78;95120.69;5022120;28;20230;-84
2021/06/02 09:02:06;;;;;;;2.78;2.42;;;21.50;54.60;;;22.03;35.40;95119.91;5029724;28;20241;-85
2021/06/02 09:04:34;;;;;;;2.83;2.60;;;21.50;54.60;;;22.12;35.76;95130.91;4941495;28;20235;-83
2021/06/02 09:07:06;;;;;;;5.45;2.78;;;21.60;54.90;;;22.18;34.36;95127.19;4830634;29;20221;-83
2021/06/02 09:09:34;;;;;;;3.35;2.70;;;21.60;53.80;;;22.21;34.26;95124.00;4784668;29;20243;-84
2021/06/02 09:12:14;;;;;;;3.85;2.60;;;21.70;53.60;;;22.29;34.90;95130.72;5150684;27;20382;-84
2021/06/02 09:14:44;;;;;;;4.28;2.80;;;21.80;54.10;;;22.35;34.35;95129.69;5068392;28;20219;-86
2021/06/02 09:17:14;;;;;;;3.60;2.63;;;21.90;53.80;;;22.42;35.01;95134.81;5069445;28;20207;-84
2021/06/02 09:19:50;;;;;;;3.17;2.70;;;21.90;53.90;;;22.47;34.95;95126.81;5025913;28;20593;-84
2021/06/02 09:22:19;;;;;;;4.65;2.80;;;22.00;53.70;;;22.52;34.82;95135.66;4980364;28;20734;-83
2021/06/02 09:24:57;;;;;;;3.88;2.83;;;22.00;53.50;;;22.57;33.89;95137.56;4937853;28;20720;-84
2021/06/02 09:27:41;;;;;;;4.97;3.13;;;22.10;52.90;;;22.59;33.81;95137.28;4829829;29;20213;-84
2021/06/02 09:32:16;;;;;;;6.03;2.63;;;22.10;53.10;;;22.64;33.94;95132.78;5150768;27;20640;-83
2021/06/02 09:34:42;;;;;;;3.67;2.33;;;22.20;53.00;;;22.69;34.12;95132.78;5088996;28;20260;-84
2021/06/02 09:37:09;;;;;;;3.08;2.45;;;22.30;53.10;;;22.80;33.93;95140.81;5081569;28;20206;-84
2021/06/02 09:39:45;;;;;;;2.83;2.35;;;22.30;53.40;;;22.87;34.10;95146.72;5018162;28;20236;-84
2021/06/02 09:42:26;;;;;;;3.20;2.58;;;22.30;53.40;;;22.92;33.90;95133.38;4982926;28;20215;-83
2021/06/02 09:45:10;;;;;;;2.80;2.60;;;22.40;53.00;;;23.02;34.11;95146.78;4975746;28;20244;-84
2021/06/02 09:47:53;;;;;;;4.22;2.92;;;22.50;53.20;;;23.08;33.70;95146.78;4889225;29;20222;-84
2021/06/02 09:52:39;;;;;;;2.90;2.47;;;22.60;53.20;;;23.20;34.17;95143.88;5150637;27;20560;-84
2021/06/02 09:55:27;;;;;;;4.38;2.58;;;22.70;53.40;;;23.32;33.69;95144.44;5101437;28;20300;-84
2021/06/02 09:58:06;;;;;;;3.42;2.60;;;22.80;53.30;;;23.41;33.85;95136.66;5066070;28;20317;-84
2021/06/02 10:00:54;;;;;;;4.32;2.60;;;22.80;53.10;;;23.49;34.33;95136.91;5051862;28;20283;-83
2021/06/02 10:03:30;;;;;;;4.60;2.83;;;22.90;53.40;;;23.58;33.97;95139.88;5055475;28;20589;-83
2021/06/02 10:05:56;;;;;;;5.13;2.80;;;23.00;52.90;;;23.67;33.70;95148.97;4855517;29;20214;-82
2021/06/02 10:08:33;;;;;;;4.35;2.63;;;23.00;53.40;;;23.76;33.89;95141.19;4769911;29;20313;-84
2021/06/02 10:13:08;;;;;;;4.00;2.70;;;23.10;53.00;;;23.85;33.77;95133.41;5138115;27;20646;-80
2021/06/02 10:15:46;;;;;;;8.10;3.00;;;23.30;53.00;;;23.90;33.70;95138.78;5072840;28;20213;-80
2021/06/02 10:18:33;;;;;;;2.83;2.50;;;23.30;52.50;;;23.89;32.93;95137.16;5045421;28;20230;-80
2021/06/02 10:21:13;;;;;;;3.60;2.38;;;23.40;52.10;;;23.90;32.39;95143.31;5013209;28;20200;-81
2021/06/02 10:23:44;;;;;;;2.58;2.38;;;23.40;51.30;;;23.88;32.20;95135.56;4907178;28;20280;-80
2021/06/02 10:26:16;;;;;;;4.13;2.58;;;23.50;50.90;;;23.89;32.55;95149.75;4834355;29;20226;-80
2021/06/02 10:28:46;;;;;;;4.30;2.45;;;23.50;51.10;;;23.90;32.03;95154.84;4701328;30;20248;-80
2021/06/02 10:31:33;;;;;;;3.22;2.40;;;23.50;50.60;;;23.90;31.52;95156.72;5129641;27;20570;-81
2021/06/02 10:34:01;;;;;;;2.70;2.50;;;23.50;50.30;;;23.91;32.20;95158.31;5089810;27;20226;-81
2021/06/02 10:36:27;;;;;;;3.15;2.35;;;23.50;50.90;;;23.93;31.66;95151.66;5073546;28;20226;-81
2021/06/02 10:39:05;;;;;;;2.53;2.33;;;23.50;50.50;;;23.98;32.06;95162.34;5095366;28;20631;-81
2021/06/02 10:41:52;;;;;;;2.72;2.30;;;23.50;50.90;;;24.03;32.14;95166.09;5016861;28;20202;-81
2021/06/02 10:44:28;;;;;;;2.28;2.08;;;23.60;50.80;;;24.07;32.32;95161.81;4884594;29;20255;-81
2021/06/02 10:46:57;;;;;;;2.35;2.15;;;23.60;51.00;;;24.12;31.98;95162.59;4836563;29;22380;-80
2021/06/02 10:49:34;;;;;;;2.40;2.03;;;23.60;50.40;;;24.14;32.47;95159.63;4715731;29;20344;-81
2021/06/02 10:54:36;;;;;;;3.80;2.40;;;23.60;50.80;;;24.24;32.12;95156.94;5137928;27;20575;-80
2021/06/02 10:57:03;;;;;;;3.00;2.38;;;23.80;50.70;;;24.34;32.15;95166.84;5065751;28;20211;-80
2021/06/02 10:59:42;;;;;;;3.90;2.33;;;23.80;50.60;;;24.41;31.61;95162.00;5071473;28;20580;-81
2021/06/02 11:02:29;;;;;;;2.22;2.05;;;23.90;50.70;;;24.51;31.80;95154.97;5010394;28;20306;-81
2021/06/02 11:04:56;;;;;;;2.75;2.10;;;23.90;50.30;;;24.57;31.75;95164.59;4978396;28;20301;-80
2021/06/02 11:07:26;;;;;;;2.47;2.28;;;24.00;50.40;;;24.67;31.66;95161.09;4907418;28;20227;-81
2021/06/02 11:10:02;;;;;;;2.35;2.15;;;24.00;50.60;;;24.80;31.72;95154.34;4804952;29;20250;-81
2021/06/02 11:15:30;;;;;;;2.35;2.13;;;24.10;50.30;;;24.99;31.13;95160.69;5150322;27;20968;-81
2021/06/02 11:18:09;;;;;;;3.33;2.10;;;24.30;50.00;;;25.10;31.18;95167.56;5101712;28;20271;-81
2021/06/02 11:20:41;;;;;;;2.75;2.08;;;24.40;50.20;;;25.20;30.79;95155.97;5056290;28;20782;-79
2021/06/02 11:23:10;;;;;;;2.63;2.10;;;24.50;49.20;;;25.28;30.08;95154.59;5053893;28;20234;-80
2021/06/02 11:25:39;;;;;;;3.72;2.58;;;24.50;49.30;;;25.34;30.21;95161.53;5052700;28;20199;-81
2021/06/02 11:28:09;;;;;;;2.40;2.13;;;24.60;49.50;;;25.41;30.47;95159.38;5020781;28;20233;-81
2021/06/02 11:30:36;;;;;;;2.15;1.90;;;24.70;49.40;;;25.49;30.83;95155.28;4881568;28;20365;-81
2021/06/02 11:33:31;;;;;;;3.30;1.80;;;24.70;49.60;;;25.60;30.71;95158.69;5132876;27;20585;-81
2021/06/02 11:36:04;;;;;;;2.20;1.98;;;24.90;50.00;;;25.71;29.86;95157.50;5082970;28;20217;-81
2021/06/02 11:38:32;;;;;;;3.13;2.22;;;24.90;48.60;;;25.75;30.10;95155.06;5037471;28;20729;-80
2021/06/02 11:40:59;;;;;;;2.10;1.90;;;25.00;49.10;;;25.83;29.78;95169.75;5030356;28;20228;-79
2021/06/02 11:43:25;;;;;;;2.35;2.10;;;25.10;48.60;;;25.91;29.85;95168.34;4947418;28;20295;-80
2021/06/02 11:45:56;;;;;;;2.10;2.00;;;25.20;48.30;;;25.95;30.54;95169.38;4869074;29;20691;-79
2021/06/02 11:48:25;;;;;;;3.08;2.22;;;25.20;48.70;;;26.00;29.79;95158.56;4730185;29;20248;-79
2021/06/02 11:50:53;;;;;;;2.67;2.47;;;25.30;48.30;;;26.12;30.10;95163.59;4469480;30;20340;-80
2021/06/02 11:54:55;;;;;;;3.30;2.10;;;25.40;48.70;;;26.25;29.71;95167.53;5126625;27;20572;-81
2021/06/02 11:57:30;;;;;;;2.15;1.95;;;25.60;48.20;;;26.25;28.83;95171.00;5092860;28;20208;-80
2021/06/02 12:00:20;;;;;;;2.67;2.10;;;25.60;47.30;;;26.24;29.12;95166.69;5054516;28;20199;-79
2021/06/02 12:02:57;;;;;;;5.97;2.33;;;25.70;47.20;;;26.23;29.17;95167.00;5025189;28;20208;-80
2021/06/02 12:05:27;;;;;;;5.40;2.38;;;25.70;47.50;;;26.27;29.04;95163.44;4997630;28;20218;-79